createdAt,value
2024-01-17T00:01:43.100Z,91.77
2024-01-17T00:04:11.390Z,91.97
2024-01-17T00:06:39.315Z,92.01
2024-01-17T00:09:09.442Z,92.11
2024-01-17T00:11:37.712Z,92.51
2024-01-17T00:14:05.761Z,92.36
2024-01-17T00:16:35.167Z,92.27
2024-01-17T00:19:05.215Z,92.14
2024-01-17T00:21:42.835Z,92.11
2024-01-17T00:24:14.228Z,92.05
2024-01-17T00:26:43.800Z,92.05
2024-01-17T00:29:11.708Z,92.10
2024-01-17T00:31:39.742Z,92.26
2024-01-17T00:34:10.180Z,92.35
2024-01-17T00:36:38.326Z,92.37
2024-01-17T00:39:05.096Z,92.42
2024-01-17T00:41:35.667Z,92.68
2024-01-17T00:44:06.432Z,92.72
2024-01-17T00:46:43.309Z,92.88
2024-01-17T00:49:11.610Z,92.74
2024-01-17T00:51:38.527Z,92.62
2024-01-17T00:54:11.267Z,92.88
2024-01-17T00:56:44.545Z,93.15
2024-01-17T00:59:21.042Z,93.00
2024-01-17T01:01:47.854Z,92.82
2024-01-17T01:04:17.061Z,92.43
2024-01-17T01:06:46.249Z,92.53
2024-01-17T01:09:15.466Z,92.66
2024-01-17T01:11:45.454Z,92.86
2024-01-17T01:14:13.984Z,92.87
2024-01-17T01:16:45.875Z,92.91
2024-01-17T01:19:14.587Z,93.15
2024-01-17T01:21:44.383Z,93.23
2024-01-17T01:24:14.877Z,92.97
2024-01-17T01:26:45.563Z,92.65
2024-01-17T01:29:20.903Z,92.05
2024-01-17T01:31:47.776Z,92.00
2024-01-17T01:34:17.603Z,91.80
2024-01-17T01:36:46.750Z,92.19
2024-01-17T01:39:18.932Z,92.23
2024-01-17T01:41:45.707Z,92.12
2024-01-17T01:44:21.358Z,92.19
2024-01-17T01:46:49.373Z,92.11
2024-01-17T01:49:21.085Z,92.14
2024-01-17T01:51:50.050Z,92.25
2024-01-17T01:54:21.279Z,92.16
2024-01-17T01:56:49.040Z,91.55
2024-01-17T01:59:21.115Z,91.11
2024-01-17T02:01:49.050Z,90.89
2024-01-17T02:04:17.873Z,90.33
2024-01-17T02:06:47.145Z,90.02
2024-01-17T02:09:24.003Z,89.32
2024-01-17T02:11:51.986Z,88.79
2024-01-17T02:14:23.138Z,88.39
2024-01-17T02:16:49.903Z,88.49
2024-01-17T02:19:21.343Z,88.56
2024-01-17T02:21:48.030Z,88.50
2024-01-17T02:24:24.340Z,88.63
2024-01-17T02:26:51.573Z,88.74
2024-01-17T02:29:23.560Z,88.85
2024-01-17T02:31:51.100Z,88.83
2024-01-17T02:34:20.716Z,88.50
2024-01-17T02:36:47.552Z,88.55
2024-01-17T02:39:22.453Z,88.18
2024-01-17T02:41:49.251Z,88.12
2024-01-17T02:44:19.627Z,88.12
2024-01-17T02:46:46.325Z,88.49
2024-01-17T02:49:21.259Z,88.64
2024-01-17T02:51:48.191Z,88.63
2024-01-17T02:54:15.777Z,88.43
2024-01-17T02:56:46.121Z,87.88
2024-01-17T02:59:23.330Z,88.04
2024-01-17T03:01:50.118Z,88.06
2024-01-17T03:04:18.410Z,87.51
2024-01-17T03:06:48.054Z,87.28
2024-01-17T03:09:18.730Z,87.18
2024-01-17T03:11:46.803Z,86.92
2024-01-17T03:14:14.842Z,86.93
2024-01-17T03:16:42.924Z,86.70
2024-01-17T03:19:13.397Z,86.54
2024-01-17T03:21:51.826Z,86.39
2024-01-17T03:24:22.217Z,86.39
2024-01-17T03:26:49.149Z,86.37
2024-01-17T03:29:20.006Z,86.21
2024-01-17T03:31:48.047Z,86.04
2024-01-17T03:34:15.292Z,85.98
2024-01-17T03:36:43.115Z,86.02
2024-01-17T03:39:13.662Z,85.93
2024-01-17T03:41:42.068Z,85.93
2024-01-17T03:44:08.844Z,85.89
2024-01-17T03:46:39.200Z,85.89
2024-01-17T03:49:08.560Z,85.96
2024-01-17T03:51:40.259Z,85.83
2024-01-17T03:54:09.822Z,85.55
2024-01-17T03:56:40.174Z,85.17
2024-01-17T03:59:10.244Z,85.33
2024-01-17T04:01:45.233Z,85.07
2024-01-17T04:04:15.078Z,84.89
2024-01-17T04:06:43.369Z,84.85
2024-01-17T04:09:12.151Z,84.72
2024-01-17T04:11:38.900Z,85.00
2024-01-17T04:14:07.502Z,84.97
2024-01-17T04:16:37.970Z,85.02
2024-01-17T04:19:07.947Z,85.02
2024-01-17T04:21:35.853Z,85.00
2024-01-17T04:24:02.616Z,84.68
2024-01-17T04:26:31.079Z,84.62
2024-01-17T04:28:57.841Z,84.43
2024-01-17T04:31:39.925Z,84.26
2024-01-17T04:34:09.098Z,84.35
2024-01-17T04:36:39.685Z,84.12
2024-01-17T04:39:08.948Z,83.97
2024-01-17T04:41:41.956Z,83.93
2024-01-17T04:44:14.881Z,83.86
2024-01-17T04:46:45.801Z,84.11
2024-01-17T04:49:17.104Z,84.26
2024-01-17T04:51:48.044Z,84.16
2024-01-17T04:54:18.424Z,84.19
2024-01-17T04:56:46.207Z,84.05
2024-01-17T04:59:12.928Z,84.04
2024-01-17T05:01:48.754Z,83.64
2024-01-17T05:04:18.114Z,83.51
2024-01-17T05:06:47.138Z,83.37
2024-01-17T05:09:21.347Z,83.44
2024-01-17T05:11:49.683Z,83.44
2024-01-17T05:14:17.757Z,83.27
2024-01-17T05:16:46.798Z,83.27
2024-01-17T05:19:19.124Z,83.32
2024-01-17T05:21:47.065Z,83.49
2024-01-17T05:24:20.609Z,83.62
2024-01-17T05:26:49.241Z,83.50
2024-01-17T05:29:19.569Z,83.19
2024-01-17T05:31:46.589Z,83.13
2024-01-17T05:34:15.477Z,83.09
2024-01-17T05:36:48.414Z,83.26
2024-01-17T05:39:15.154Z,82.98
2024-01-17T05:41:43.429Z,83.00
2024-01-17T05:44:15.741Z,82.68
2024-01-17T05:46:46.085Z,82.53
2024-01-17T05:49:16.018Z,82.50
2024-01-17T05:51:47.757Z,82.59
2024-01-17T05:54:16.091Z,82.62
2024-01-17T05:56:44.382Z,82.60
2024-01-17T05:59:16.701Z,82.54
2024-01-17T06:01:46.258Z,82.55
2024-01-17T06:04:23.558Z,82.77
2024-01-17T06:06:50.433Z,82.58
2024-01-17T06:09:21.332Z,82.45
2024-01-17T06:11:48.237Z,82.44
2024-01-17T06:14:16.674Z,82.77
2024-01-17T06:16:46.047Z,82.60
2024-01-17T06:19:16.435Z,82.74
2024-01-17T06:21:46.746Z,82.65
2024-01-17T06:24:13.513Z,82.37
2024-01-17T06:26:42.886Z,82.46
2024-01-17T06:29:12.010Z,82.17
2024-01-17T06:31:42.150Z,82.08
2024-01-17T06:34:10.342Z,82.10
2024-01-17T06:36:44.903Z,82.19
2024-01-17T06:39:14.970Z,82.13
2024-01-17T06:41:45.337Z,82.04
2024-01-17T06:44:13.288Z,82.14
2024-01-17T06:46:43.608Z,82.29
2024-01-17T06:49:14.143Z,82.44
2024-01-17T06:51:46.375Z,82.40
2024-01-17T06:54:15.044Z,82.07
2024-01-17T06:56:43.145Z,81.96
2024-01-17T06:59:19.175Z,81.87
2024-01-17T07:01:48.518Z,81.77
2024-01-17T07:04:16.419Z,82.23
2024-01-17T07:06:52.538Z,81.59
2024-01-17T07:09:20.608Z,81.44
2024-01-17T07:11:52.009Z,81.65
2024-01-17T07:14:22.328Z,81.06
2024-01-17T07:16:50.074Z,80.85
2024-01-17T07:19:18.435Z,80.84
2024-01-17T07:21:46.838Z,81.14
2024-01-17T07:24:17.187Z,80.83
2024-01-17T07:26:46.569Z,80.45
2024-01-17T07:29:16.884Z,80.24
2024-01-17T07:31:45.744Z,80.07
2024-01-17T07:34:13.078Z,80.16
2024-01-17T07:36:43.201Z,79.80
2024-01-17T07:39:12.583Z,79.45
2024-01-17T07:41:40.515Z,79.24
2024-01-17T07:44:17.560Z,79.16
2024-01-17T07:46:47.904Z,79.25
2024-01-17T07:49:15.914Z,79.78
2024-01-17T07:51:46.407Z,80.24
2024-01-17T07:54:17.084Z,80.67
2024-01-17T07:56:45.257Z,82.00
2024-01-17T07:59:16.518Z,81.78
2024-01-17T08:01:45.482Z,81.79
2024-01-17T08:04:13.625Z,80.77
2024-01-17T08:06:40.987Z,80.66
2024-01-17T08:09:22.893Z,81.05
2024-01-17T08:11:52.532Z,81.26
2024-01-17T08:14:28.796Z,80.62
2024-01-17T08:16:55.593Z,80.15
2024-01-17T08:19:31.629Z,80.07
2024-01-17T08:21:58.648Z,79.88
2024-01-17T08:24:28.615Z,79.52
2024-01-17T08:26:55.442Z,79.43
2024-01-17T08:29:33.287Z,79.54
2024-01-17T08:31:59.988Z,79.42
2024-01-17T08:34:28.386Z,79.16
2024-01-17T08:36:55.931Z,79.16
2024-01-17T08:39:31.688Z,78.60
2024-01-17T08:41:58.520Z,78.21
2024-01-17T08:44:28.987Z,77.98
2024-01-17T08:46:56.180Z,78.01
2024-01-17T08:49:22.946Z,77.91
2024-01-17T08:51:49.748Z,77.71
2024-01-17T08:54:19.634Z,77.58
2024-01-17T08:56:48.019Z,77.53
2024-01-17T08:59:15.986Z,77.92
2024-01-17T09:01:48.406Z,77.91
2024-01-17T09:04:16.705Z,77.31
2024-01-17T09:06:47.824Z,76.87
2024-01-17T09:09:16.339Z,76.48
2024-01-17T09:11:44.821Z,76.63
2024-01-17T09:14:15.969Z,76.87
2024-01-17T09:16:44.359Z,77.07
2024-01-17T09:19:12.777Z,76.70
2024-01-17T09:21:48.557Z,76.02
2024-01-17T09:24:16.707Z,75.76
2024-01-17T09:26:46.953Z,75.95
2024-01-17T09:29:24.499Z,75.50
2024-01-17T09:31:52.002Z,75.48
2024-01-17T09:34:20.358Z,75.32
2024-01-17T09:36:47.686Z,75.80
2024-01-17T09:39:16.279Z,75.75
2024-01-17T09:41:46.558Z,75.67
2024-01-17T09:44:16.920Z,75.61
2024-01-17T09:46:46.975Z,75.72
2024-01-17T09:49:23.992Z,75.95
2024-01-17T09:51:52.122Z,75.86
2024-01-17T10:19:16.380Z,74.07
2024-01-17T10:21:45.072Z,73.51
2024-01-17T10:24:15.437Z,73.51
2024-01-17T10:26:49.196Z,73.38
2024-01-17T10:29:26.128Z,73.70
2024-01-17T10:32:09.238Z,73.50
2024-01-17T10:34:46.617Z,73.50
2024-01-17T10:37:15.799Z,73.62
2024-01-17T10:39:44.884Z,73.79
2024-01-17T10:42:22.229Z,74.08
2024-01-17T10:44:50.309Z,73.89
2024-01-17T10:47:18.690Z,73.66
2024-01-17T10:49:46.672Z,73.72
2024-01-17T10:52:17.947Z,73.75
2024-01-17T10:54:52.377Z,73.73
2024-01-17T10:57:23.317Z,73.72
2024-01-17T10:59:56.734Z,74.20
2024-01-17T11:02:24.350Z,73.96
2024-01-17T11:05:03.205Z,74.14
2024-01-17T11:07:32.144Z,74.33
2024-01-17T11:10:04.268Z,74.27
2024-01-17T11:12:37.248Z,73.90
2024-01-17T11:15:08.206Z,74.05
2024-01-17T11:17:37.578Z,74.00
2024-01-17T11:20:09.772Z,73.56
2024-01-17T11:22:37.857Z,73.78
2024-01-17T11:25:25.992Z,73.62
2024-01-17T11:28:26.757Z,73.55
2024-01-17T11:31:26.247Z,73.70
2024-01-17T11:33:53.457Z,73.82
2024-01-17T11:36:46.002Z,73.65
2024-01-17T11:39:18.754Z,73.58
2024-01-17T11:41:47.351Z,73.62
2024-01-17T11:44:15.989Z,73.55
2024-01-17T11:46:42.835Z,73.51
2024-01-17T11:49:10.878Z,73.92
2024-01-17T11:51:38.869Z,73.83
2024-01-17T11:54:11.043Z,73.70
2024-01-17T11:56:37.754Z,73.61
2024-01-17T11:59:14.839Z,73.48
2024-01-17T12:01:43.356Z,73.35
2024-01-17T12:04:17.920Z,73.50
2024-01-17T12:06:53.437Z,73.78
2024-01-17T12:09:24.562Z,73.59
2024-01-17T12:11:53.933Z,73.37
2024-01-17T12:14:20.838Z,73.37
2024-01-17T12:16:48.462Z,73.52
2024-01-17T12:19:16.680Z,73.64
2024-01-17T12:21:44.836Z,73.56
2024-01-17T12:24:13.423Z,73.18
2024-01-17T12:26:40.586Z,73.40
2024-01-17T12:29:08.206Z,73.75
2024-01-17T12:31:35.204Z,73.21
2024-01-17T12:34:02.595Z,73.41
2024-01-17T12:36:32.212Z,73.29
2024-01-17T12:39:04.107Z,73.37
2024-01-17T12:41:32.210Z,73.14
2024-01-17T12:43:59.072Z,73.34
2024-01-17T12:46:27.042Z,73.36
2024-01-17T12:48:58.139Z,73.40
2024-01-17T12:51:27.467Z,73.48
2024-01-17T12:53:55.683Z,73.17
2024-01-17T12:56:26.144Z,73.02
2024-01-17T12:58:54.024Z,73.12
2024-01-17T13:01:27.084Z,72.78
2024-01-17T13:04:04.795Z,72.92
2024-01-17T13:06:32.839Z,72.87
2024-01-17T13:09:15.143Z,73.32
2024-01-17T13:11:42.254Z,73.18
2024-01-17T13:14:09.773Z,73.34
2024-01-17T13:16:36.663Z,73.70
2024-01-17T13:19:09.198Z,73.72
2024-01-17T13:21:37.504Z,73.91
2024-01-17T13:24:05.535Z,73.84
2024-01-17T13:26:34.841Z,73.90
2024-01-17T13:29:01.666Z,73.93
2024-01-17T13:31:28.467Z,74.26
2024-01-17T13:33:56.462Z,74.20
2024-01-17T13:36:24.723Z,74.13
2024-01-17T13:38:53.578Z,74.16
2024-01-17T13:41:27.049Z,74.20
2024-01-17T13:43:57.354Z,74.12
2024-01-17T13:46:25.689Z,74.44
2024-01-17T13:48:54.793Z,74.56
2024-01-17T13:51:26.052Z,74.64
2024-01-17T13:53:57.493Z,74.75
2024-01-17T13:56:25.343Z,74.84
2024-01-17T13:58:52.164Z,74.94
2024-01-17T14:01:20.731Z,75.19
2024-01-17T14:03:49.200Z,75.35
2024-01-17T14:06:16.438Z,75.35
2024-01-17T14:08:44.541Z,75.38
2024-01-17T14:11:14.863Z,75.65
2024-01-17T14:13:43.918Z,75.97
2024-01-17T14:16:14.284Z,75.70
2024-01-17T14:18:42.580Z,75.82
2024-01-17T14:21:10.186Z,75.78
2024-01-17T14:23:37.183Z,75.89
2024-01-17T14:26:05.393Z,75.79
2024-01-17T14:28:33.703Z,75.72
2024-01-17T14:31:02.141Z,75.79
2024-01-17T14:33:30.096Z,75.85
2024-01-17T14:35:58.269Z,76.09
2024-01-17T14:38:26.309Z,76.36
2024-01-17T14:40:53.049Z,76.56
2024-01-17T14:43:21.176Z,76.59
2024-01-17T14:45:49.207Z,76.66
2024-01-17T14:48:17.845Z,76.60
2024-01-17T14:50:44.693Z,76.77
2024-01-17T14:53:13.551Z,77.10
2024-01-17T14:55:41.752Z,77.29
2024-01-17T14:58:09.008Z,77.56
2024-01-17T15:00:36.853Z,77.96
2024-01-17T15:03:03.799Z,77.94
2024-01-17T15:05:31.200Z,78.13
2024-01-17T15:07:58.605Z,77.77
2024-01-17T15:10:28.381Z,78.24
2024-01-17T15:12:56.470Z,78.27
2024-01-17T15:15:24.660Z,78.49
2024-01-17T15:17:53.795Z,78.65
2024-01-17T15:20:24.760Z,78.56
2024-01-17T15:22:52.510Z,78.73
2024-01-17T15:25:20.407Z,78.92
2024-01-17T15:27:48.196Z,78.83
2024-01-17T15:30:16.901Z,78.80
2024-01-17T15:32:46.057Z,78.84
2024-01-17T15:35:14.262Z,79.00
2024-01-17T15:37:42.563Z,79.11
2024-01-17T15:40:12.081Z,79.31
2024-01-17T15:42:42.580Z,79.04
2024-01-17T15:45:11.613Z,79.08
2024-01-17T15:47:40.444Z,79.15
2024-01-17T15:50:09.335Z,79.40
2024-01-17T15:52:37.146Z,79.88
2024-01-17T15:55:04.315Z,80.02
2024-01-17T15:57:31.113Z,80.18
2024-01-17T15:59:59.152Z,80.27
2024-01-17T16:02:27.162Z,80.30
2024-01-17T16:04:53.879Z,80.47
2024-01-17T16:07:20.771Z,80.65
2024-01-17T16:09:50.168Z,80.76
2024-01-17T16:12:18.254Z,80.66
2024-01-17T16:14:45.156Z,80.67
2024-01-17T16:17:12.107Z,80.73
2024-01-17T16:19:40.080Z,81.08
2024-01-17T16:22:08.276Z,81.08
2024-01-17T16:24:36.169Z,81.23
2024-01-17T16:27:04.185Z,81.15
2024-01-17T16:29:32.842Z,81.01
2024-01-17T16:31:59.597Z,81.01
2024-01-17T16:34:27.610Z,80.89
2024-01-17T16:36:54.361Z,80.84
2024-01-17T16:39:22.295Z,81.03
2024-01-17T16:41:50.338Z,81.17
2024-01-17T16:44:18.771Z,81.12
2024-01-17T16:46:46.615Z,81.09
2024-01-17T16:49:16.438Z,81.28
2024-01-17T16:51:43.759Z,81.39
2024-01-17T16:54:10.666Z,81.14
2024-01-17T16:56:38.453Z,81.45
2024-01-17T16:59:05.179Z,81.68
2024-01-17T17:01:31.967Z,81.92
2024-01-17T17:04:00.197Z,82.06
2024-01-17T17:06:26.998Z,82.08
2024-01-17T17:08:55.234Z,82.35
2024-01-17T17:11:23.315Z,82.26
2024-01-17T17:13:50.571Z,82.23
2024-01-17T17:16:19.597Z,82.55
2024-01-17T17:18:46.644Z,82.48
2024-01-17T17:21:15.039Z,82.45
2024-01-17T17:23:46.159Z,82.50
2024-01-17T17:26:14.181Z,82.76
2024-01-17T17:28:41.335Z,82.82
2024-01-17T17:31:09.245Z,82.81
2024-01-17T17:33:37.548Z,82.71
2024-01-17T17:36:06.330Z,82.92
2024-01-17T17:38:34.258Z,83.05
2024-01-17T17:41:02.169Z,82.98
2024-01-17T17:43:30.217Z,83.01
2024-01-17T17:45:58.634Z,82.96
2024-01-17T17:48:27.764Z,82.97
2024-01-17T17:50:56.528Z,82.89
2024-01-17T17:53:24.683Z,82.87
2024-01-17T17:55:52.760Z,83.17
2024-01-17T18:01:01.573Z,83.31
2024-01-17T18:03:30.012Z,83.44
2024-01-17T18:05:57.073Z,83.45
2024-01-17T18:08:25.228Z,83.47
2024-01-17T18:10:53.673Z,83.45
2024-01-17T18:13:20.559Z,83.48
2024-01-17T18:15:48.807Z,83.40
2024-01-17T18:18:18.345Z,83.65
2024-01-17T18:20:45.541Z,83.55
2024-01-17T18:23:15.069Z,83.62
2024-01-17T18:25:44.667Z,83.74
2024-01-17T18:28:14.292Z,83.92
2024-01-17T18:30:41.631Z,84.08
2024-01-17T18:33:09.384Z,84.09
2024-01-17T18:35:38.235Z,84.24
2024-01-17T18:38:06.304Z,84.69
2024-01-17T18:40:34.611Z,85.00
2024-01-17T18:43:01.405Z,85.15
2024-01-17T18:45:28.696Z,85.29
2024-01-17T18:47:55.635Z,85.79
2024-01-17T18:50:24.725Z,85.90
2024-01-17T18:52:52.657Z,86.04
2024-01-17T18:55:20.539Z,86.20
2024-01-17T18:57:48.569Z,86.33
2024-01-17T19:00:15.732Z,86.67
2024-01-17T19:02:42.672Z,86.56
2024-01-17T19:05:10.740Z,86.50
2024-01-17T19:07:39.051Z,86.66
2024-01-17T19:10:07.401Z,86.66
2024-01-17T19:12:35.502Z,86.73
2024-01-17T19:15:02.362Z,86.94
2024-01-17T19:17:30.795Z,87.12
2024-01-17T19:19:59.706Z,87.31
2024-01-17T19:22:30.143Z,87.31
2024-01-17T19:24:58.267Z,87.32
2024-01-17T19:27:29.071Z,87.53
2024-01-17T19:29:57.126Z,87.81
2024-01-17T19:32:23.959Z,87.79
2024-01-17T19:34:51.879Z,87.60
2024-01-17T19:37:19.934Z,87.47
2024-01-17T19:39:48.079Z,87.58
2024-01-17T19:42:16.191Z,87.67
2024-01-17T19:44:44.154Z,87.75
2024-01-17T19:47:12.517Z,87.89
2024-01-17T19:49:40.551Z,87.96
2024-01-17T19:52:11.981Z,88.07
2024-01-17T19:54:39.180Z,87.94
2024-01-17T19:57:07.249Z,88.06
2024-01-17T19:59:33.986Z,88.01
2024-01-17T20:02:01.957Z,88.24
2024-01-17T20:04:30.199Z,88.52
2024-01-17T20:06:58.007Z,88.62
2024-01-17T20:09:26.184Z,88.76
2024-01-17T20:11:53.066Z,88.90
2024-01-17T20:14:19.865Z,89.16
2024-01-17T20:16:48.793Z,89.29
2024-01-17T20:19:21.744Z,89.23
2024-01-17T20:21:51.900Z,89.33
2024-01-17T20:24:20.002Z,89.38
2024-01-17T20:26:46.784Z,89.38
2024-01-17T20:29:14.826Z,89.57
2024-01-17T20:31:42.689Z,89.79
2024-01-17T20:34:10.667Z,89.91
2024-01-17T20:36:38.723Z,90.08
2024-01-17T20:39:05.511Z,89.81
2024-01-17T20:41:34.644Z,89.73
2024-01-17T20:44:01.373Z,89.76
2024-01-17T20:46:29.478Z,90.17
2024-01-17T20:48:57.585Z,90.69
2024-01-17T20:51:27.211Z,90.82
2024-01-17T20:53:54.402Z,91.15
2024-01-17T20:56:25.373Z,91.27
2024-01-17T20:58:54.906Z,91.39
2024-01-17T21:01:30.569Z,91.50
2024-01-17T21:03:57.345Z,91.46
2024-01-17T21:06:24.104Z,91.42
2024-01-17T21:08:52.609Z,91.34
2024-01-17T21:11:20.701Z,91.40
2024-01-17T21:13:48.935Z,91.35
2024-01-17T21:16:17.025Z,91.33
2024-01-17T21:18:44.907Z,91.12
2024-01-17T21:21:12.186Z,91.24
2024-01-17T21:23:40.263Z,91.40
2024-01-17T21:26:07.966Z,91.71
2024-01-17T21:28:34.800Z,92.05
2024-01-17T21:31:03.734Z,92.13
2024-01-17T21:33:30.719Z,92.43
2024-01-17T21:36:01.347Z,92.69
2024-01-17T21:38:29.304Z,92.88
2024-01-17T21:40:57.357Z,92.73
2024-01-17T21:43:25.639Z,92.37
2024-01-17T21:45:54.423Z,92.21
2024-01-17T21:48:22.502Z,92.17
2024-01-17T21:50:50.391Z,92.28
2024-01-17T21:53:17.265Z,92.39
2024-01-17T21:55:45.337Z,92.46
2024-01-17T21:58:12.446Z,92.39
2024-01-17T22:00:40.546Z,92.47
2024-01-17T22:03:07.815Z,92.59
2024-01-17T22:05:36.069Z,92.59
2024-01-17T22:08:04.329Z,92.66
2024-01-17T22:10:32.368Z,92.25
2024-01-17T22:13:00.643Z,92.36
2024-01-17T22:15:28.973Z,92.23
2024-01-17T22:17:57.277Z,92.23
2024-01-17T22:20:24.034Z,92.24
2024-01-17T22:22:52.814Z,92.07
2024-01-17T22:25:19.582Z,92.07
2024-01-17T22:27:47.297Z,92.12
2024-01-17T22:30:15.367Z,92.13
2024-01-17T22:32:42.210Z,92.39
2024-01-17T22:35:12.636Z,92.83
2024-01-17T22:37:39.521Z,92.99
2024-01-17T22:40:11.039Z,92.95
2024-01-17T22:42:39.939Z,92.96
2024-01-17T22:45:10.045Z,92.71
2024-01-17T22:47:38.208Z,92.67
2024-01-17T22:50:05.822Z,92.86
2024-01-17T22:52:32.622Z,93.10
2024-01-17T22:54:59.314Z,93.37
2024-01-17T22:57:27.648Z,93.24
2024-01-17T22:59:54.584Z,93.37
2024-01-17T23:02:22.644Z,93.38
2024-01-17T23:04:49.316Z,93.64
2024-01-17T23:07:17.204Z,93.53
2024-01-17T23:09:43.933Z,93.65
2024-01-17T23:12:11.656Z,93.77
2024-01-17T23:14:38.427Z,93.76
2024-01-17T23:17:06.399Z,93.81
2024-01-17T23:19:33.449Z,93.86
2024-01-17T23:22:01.725Z,93.66
2024-01-17T23:24:29.822Z,93.82
2024-01-17T23:26:58.198Z,93.85
2024-01-17T23:29:24.962Z,93.86
2024-01-17T23:31:52.231Z,93.67
2024-01-17T23:34:19.192Z,93.71
2024-01-17T23:36:45.962Z,93.97
2024-01-17T23:39:14.058Z,94.26
2024-01-17T23:41:41.996Z,94.83
2024-01-17T23:44:10.335Z,95.40
2024-01-17T23:46:38.325Z,95.45
2024-01-17T23:49:05.162Z,95.96
2024-01-17T23:51:32.047Z,96.02
2024-01-17T23:54:02.536Z,96.41
2024-01-17T23:56:39.790Z,96.78
2024-01-17T23:59:08.200Z,96.78
